sensor_id;sensor_type;location;lat;lon;timestamp;temperature;humidity
8928;DHT22;4499;48.304;11.902;2022-12-05T00:02:12;1.20;99.90
8928;DHT22;4499;48.304;11.902;2022-12-05T00:04:40;1.20;99.90
8928;DHT22;4499;48.304;11.902;2022-12-05T00:07:09;1.20;99.90
8928;DHT22;4499;48.304;11.902;2022-12-05T00:09:37;1.10;99.90
8928;DHT22;4499;48.304;11.902;2022-12-05T00:12:06;1.10;99.90
8928;DHT22;4499;48.304;11.902;2022-12-05T00:14:34;1.10;99.90
8928;DHT22;4499;48.304;11.902;2022-12-05T00:17:04;1.20;99.90
8928;DHT22;4499;48.304;11.902;2022-12-05T00:19:32;1.10;99.90
8928;DHT22;4499;48.304;11.902;2022-12-05T00:22:03;1.10;99.90
8928;DHT22;4499;48.304;11.902;2022-12-05T00:24:31;1.10;99.90
8928;DHT22;4499;48.304;11.902;2022-12-05T00:26:59;1.10;99.90
8928;DHT22;4499;48.304;11.902;2022-12-05T00:29:27;1.10;99.90
8928;DHT22;4499;48.304;11.902;2022-12-05T00:31:56;1.10;99.90
8928;DHT22;4499;48.304;11.902;2022-12-05T00:34:25;1.10;99.90
8928;DHT22;4499;48.304;11.902;2022-12-05T00:36:54;1.20;99.90
8928;DHT22;4499;48.304;11.902;2022-12-05T00:39:22;1.10;99.90
8928;DHT22;4499;48.304;11.902;2022-12-05T00:41:50;1.20;99.90
8928;DHT22;4499;48.304;11.902;2022-12-05T00:44:18;1.20;99.90
8928;DHT22;4499;48.304;11.902;2022-12-05T00:46:46;1.10;99.90
8928;DHT22;4499;48.304;11.902;2022-12-05T00:49:14;1.20;99.90
8928;DHT22;4499;48.304;11.902;2022-12-05T00:51:44;1.20;99.90
8928;DHT22;4499;48.304;11.902;2022-12-05T00:54:13;1.20;99.90
8928;DHT22;4499;48.304;11.902;2022-12-05T00:56:42;1.20;99.90
8928;DHT22;4499;48.304;11.902;2022-12-05T00:59:14;1.20;99.90
8928;DHT22;4499;48.304;11.902;2022-12-05T01:01:45;1.20;99.90
8928;DHT22;4499;48.304;11.902;2022-12-05T01:04:15;1.10;99.90
8928;DHT22;4499;48.304;11.902;2022-12-05T01:06:45;1.10;99.90
8928;DHT22;4499;48.304;11.902;2022-12-05T01:09:16;1.20;99.90
8928;DHT22;4499;48.304;11.902;2022-12-05T01:11:44;1.20;99.90
8928;DHT22;4499;48.304;11.902;2022-12-05T01:14:14;1.20;99.90
8928;DHT22;4499;48.304;11.902;2022-12-05T01:16:44;1.20;99.90
8928;DHT22;4499;48.304;11.902;2022-12-05T01:19:17;1.20;99.90
8928;DHT22;4499;48.304;11.902;2022-12-05T01:21:47;1.20;99.90
8928;DHT22;4499;48.304;11.902;2022-12-05T01:24:16;1.20;99.90
8928;DHT22;4499;48.304;11.902;2022-12-05T01:26:45;1.20;99.90
8928;DHT22;4499;48.304;11.902;2022-12-05T01:29:16;1.20;99.90
8928;DHT22;4499;48.304;11.902;2022-12-05T01:31:44;1.20;99.90
8928;DHT22;4499;48.304;11.902;2022-12-05T01:34:15;1.10;99.90
8928;DHT22;4499;48.304;11.902;2022-12-05T01:36:44;1.20;99.90
8928;DHT22;4499;48.304;11.902;2022-12-05T01:39:13;1.10;99.90
8928;DHT22;4499;48.304;11.902;2022-12-05T01:41:44;1.10;99.90
8928;DHT22;4499;48.304;11.902;2022-12-05T01:47:18;1.10;99.90
8928;DHT22;4499;48.304;11.902;2022-12-05T01:49:46;1.00;99.90
8928;DHT22;4499;48.304;11.902;2022-12-05T01:52:17;1.10;99.90
8928;DHT22;4499;48.304;11.902;2022-12-05T01:54:48;1.10;99.90
8928;DHT22;4499;48.304;11.902;2022-12-05T01:57:17;1.10;99.90
8928;DHT22;4499;48.304;11.902;2022-12-05T01:59:50;1.10;99.90
8928;DHT22;4499;48.304;11.902;2022-12-05T02:02:19;1.10;99.90
8928;DHT22;4499;48.304;11.902;2022-12-05T02:04:55;1.10;99.90
8928;DHT22;4499;48.304;11.902;2022-12-05T02:07:25;1.10;99.90
8928;DHT22;4499;48.304;11.902;2022-12-05T02:09:55;1.10;99.90
8928;DHT22;4499;48.304;11.902;2022-12-05T02:12:24;1.10;99.90
8928;DHT22;4499;48.304;11.902;2022-12-05T02:15:11;1.10;99.90
8928;DHT22;4499;48.304;11.902;2022-12-05T02:17:49;1.10;99.90
8928;DHT22;4499;48.304;11.902;2022-12-05T02:20:27;1.00;99.90
8928;DHT22;4499;48.304;11.902;2022-12-05T02:23:14;1.00;99.90
8928;DHT22;4499;48.304;11.902;2022-12-05T02:25:53;1.00;99.90
8928;DHT22;4499;48.304;11.902;2022-12-05T02:28:51;1.00;99.90
8928;DHT22;4499;48.304;11.902;2022-12-05T02:31:27;1.00;99.90
8928;DHT22;4499;48.304;11.902;2022-12-05T02:34:04;0.90;99.90
8928;DHT22;4499;48.304;11.902;2022-12-05T02:36:38;0.90;99.90
8928;DHT22;4499;48.304;11.902;2022-12-05T02:39:13;1.00;99.90
8928;DHT22;4499;48.304;11.902;2022-12-05T02:41:48;1.00;99.90
8928;DHT22;4499;48.304;11.902;2022-12-05T02:44:21;0.90;99.90
8928;DHT22;4499;48.304;11.902;2022-12-05T02:46:54;0.90;99.90
8928;DHT22;4499;48.304;11.902;2022-12-05T02:49:27;0.80;99.90
8928;DHT22;4499;48.304;11.902;2022-12-05T02:51:59;0.90;99.90
8928;DHT22;4499;48.304;11.902;2022-12-05T02:54:30;0.90;99.90
8928;DHT22;4499;48.304;11.902;2022-12-05T02:57:00;0.90;99.90
8928;DHT22;4499;48.304;11.902;2022-12-05T02:59:28;0.90;99.90
8928;DHT22;4499;48.304;11.902;2022-12-05T03:01:57;0.90;99.90
8928;DHT22;4499;48.304;11.902;2022-12-05T03:04:27;0.90;99.90
8928;DHT22;4499;48.304;11.902;2022-12-05T03:06:59;0.90;99.90
8928;DHT22;4499;48.304;11.902;2022-12-05T03:09:30;1.00;99.90
8928;DHT22;4499;48.304;11.902;2022-12-05T03:12:06;1.00;99.90
8928;DHT22;4499;48.304;11.902;2022-12-05T03:14:41;1.00;99.90
8928;DHT22;4499;48.304;11.902;2022-12-05T03:17:16;1.00;99.90
8928;DHT22;4499;48.304;11.902;2022-12-05T03:19:51;1.00;99.90
8928;DHT22;4499;48.304;11.902;2022-12-05T03:22:25;1.00;99.90
8928;DHT22;4499;48.304;11.902;2022-12-05T03:24:58;0.90;99.90
8928;DHT22;4499;48.304;11.902;2022-12-05T03:27:28;1.00;99.90
8928;DHT22;4499;48.304;11.902;2022-12-05T03:30:01;0.90;99.90
8928;DHT22;4499;48.304;11.902;2022-12-05T03:32:36;0.90;99.90
8928;DHT22;4499;48.304;11.902;2022-12-05T03:35:09;0.90;99.90
8928;DHT22;4499;48.304;11.902;2022-12-05T03:37:48;0.90;99.90
8928;DHT22;4499;48.304;11.902;2022-12-05T03:40:25;0.90;99.90
8928;DHT22;4499;48.304;11.902;2022-12-05T03:42:58;0.90;99.90
8928;DHT22;4499;48.304;11.902;2022-12-05T03:45:33;0.80;99.90
8928;DHT22;4499;48.304;11.902;2022-12-05T03:48:09;0.80;99.90
8928;DHT22;4499;48.304;11.902;2022-12-05T03:50:43;0.90;99.90
8928;DHT22;4499;48.304;11.902;2022-12-05T03:53:16;0.80;99.90
8928;DHT22;4499;48.304;11.902;2022-12-05T03:55:53;0.80;99.90
8928;DHT22;4499;48.304;11.902;2022-12-05T03:58:27;0.70;99.90
8928;DHT22;4499;48.304;11.902;2022-12-05T04:00:58;0.80;99.90
8928;DHT22;4499;48.304;11.902;2022-12-05T04:03:32;0.80;99.90
8928;DHT22;4499;48.304;11.902;2022-12-05T04:06:11;0.70;99.90
8928;DHT22;4499;48.304;11.902;2022-12-05T04:08:45;0.80;99.90
8928;DHT22;4499;48.304;11.902;2022-12-05T04:11:16;0.70;99.90
8928;DHT22;4499;48.304;11.902;2022-12-05T04:13:49;0.80;99.90
8928;DHT22;4499;48.304;11.902;2022-12-05T04:16:24;0.80;99.90
8928;DHT22;4499;48.304;11.902;2022-12-05T04:19:16;0.80;99.90
8928;DHT22;4499;48.304;11.902;2022-12-05T04:21:49;0.80;99.90
8928;DHT22;4499;48.304;11.902;2022-12-05T04:24:20;0.90;99.90
8928;DHT22;4499;48.304;11.902;2022-12-05T04:27:21;0.90;99.90
8928;DHT22;4499;48.304;11.902;2022-12-05T04:29:55;0.90;99.90
8928;DHT22;4499;48.304;11.902;2022-12-05T04:32:29;0.90;99.90
8928;DHT22;4499;48.304;11.902;2022-12-05T04:35:06;1.00;99.90
8928;DHT22;4499;48.304;11.902;2022-12-05T04:37:41;1.00;99.90
8928;DHT22;4499;48.304;11.902;2022-12-05T04:40:13;1.00;99.90
8928;DHT22;4499;48.304;11.902;2022-12-05T04:42:42;1.00;99.90
8928;DHT22;4499;48.304;11.902;2022-12-05T04:45:14;1.00;99.90
8928;DHT22;4499;48.304;11.902;2022-12-05T04:47:48;1.00;99.90
8928;DHT22;4499;48.304;11.902;2022-12-05T04:50:20;1.10;99.90
8928;DHT22;4499;48.304;11.902;2022-12-05T04:52:53;1.00;99.90
8928;DHT22;4499;48.304;11.902;2022-12-05T04:55:23;1.00;99.90
8928;DHT22;4499;48.304;11.902;2022-12-05T04:58:02;1.10;99.90
8928;DHT22;4499;48.304;11.902;2022-12-05T05:00:37;1.10;99.90
8928;DHT22;4499;48.304;11.902;2022-12-05T05:03:10;1.10;99.90
8928;DHT22;4499;48.304;11.902;2022-12-05T05:05:44;1.10;99.90
8928;DHT22;4499;48.304;11.902;2022-12-05T05:08:17;1.10;99.90
8928;DHT22;4499;48.304;11.902;2022-12-05T05:10:53;1.10;99.90
8928;DHT22;4499;48.304;11.902;2022-12-05T05:13:23;1.20;99.90
8928;DHT22;4499;48.304;11.902;2022-12-05T05:15:51;1.20;99.90
8928;DHT22;4499;48.304;11.902;2022-12-05T05:18:20;1.10;99.90
8928;DHT22;4499;48.304;11.902;2022-12-05T05:20:50;1.10;99.90
8928;DHT22;4499;48.304;11.902;2022-12-05T05:23:18;1.10;99.90
8928;DHT22;4499;48.304;11.902;2022-12-05T05:25:51;1.10;99.90
8928;DHT22;4499;48.304;11.902;2022-12-05T05:28:19;1.20;99.90
8928;DHT22;4499;48.304;11.902;2022-12-05T05:30:48;1.20;99.90
8928;DHT22;4499;48.304;11.902;2022-12-05T05:33:16;1.10;99.90
8928;DHT22;4499;48.304;11.902;2022-12-05T05:35:44;1.20;99.90
8928;DHT22;4499;48.304;11.902;2022-12-05T05:38:13;1.20;99.90
8928;DHT22;4499;48.304;11.902;2022-12-05T05:40:41;1.10;99.90
8928;DHT22;4499;48.304;11.902;2022-12-05T05:43:10;1.20;99.90
8928;DHT22;4499;48.304;11.902;2022-12-05T05:45:38;1.30;99.90
8928;DHT22;4499;48.304;11.902;2022-12-05T05:48:06;1.20;99.90
8928;DHT22;4499;48.304;11.902;2022-12-05T05:50:34;1.20;99.90
8928;DHT22;4499;48.304;11.902;2022-12-05T05:53:02;1.20;99.90
8928;DHT22;4499;48.304;11.902;2022-12-05T05:55:32;1.30;99.90
8928;DHT22;4499;48.304;11.902;2022-12-05T05:58:00;1.30;99.90
8928;DHT22;4499;48.304;11.902;2022-12-05T06:00:28;1.30;99.90
8928;DHT22;4499;48.304;11.902;2022-12-05T06:02:58;1.30;99.90
8928;DHT22;4499;48.304;11.902;2022-12-05T06:05:26;1.30;99.90
8928;DHT22;4499;48.304;11.902;2022-12-05T06:07:57;1.40;99.90
8928;DHT22;4499;48.304;11.902;2022-12-05T06:10:25;1.40;99.90
8928;DHT22;4499;48.304;11.902;2022-12-05T06:12:57;1.40;99.90
8928;DHT22;4499;48.304;11.902;2022-12-05T06:15:26;1.40;99.90
8928;DHT22;4499;48.304;11.902;2022-12-05T06:17:55;1.40;99.90
8928;DHT22;4499;48.304;11.902;2022-12-05T06:20:24;1.40;99.90
8928;DHT22;4499;48.304;11.902;2022-12-05T06:22:52;1.40;99.90
8928;DHT22;4499;48.304;11.902;2022-12-05T06:25:20;1.50;99.90
8928;DHT22;4499;48.304;11.902;2022-12-05T06:27:48;1.40;99.90
8928;DHT22;4499;48.304;11.902;2022-12-05T06:30:17;1.50;99.90
8928;DHT22;4499;48.304;11.902;2022-12-05T06:32:49;1.50;99.90
8928;DHT22;4499;48.304;11.902;2022-12-05T06:35:17;1.50;99.90
8928;DHT22;4499;48.304;11.902;2022-12-05T06:37:45;1.50;99.90
8928;DHT22;4499;48.304;11.902;2022-12-05T06:40:13;1.50;99.90
8928;DHT22;4499;48.304;11.902;2022-12-05T06:42:41;1.50;99.90
8928;DHT22;4499;48.304;11.902;2022-12-05T06:45:10;1.50;99.90
8928;DHT22;4499;48.304;11.902;2022-12-05T06:47:41;1.50;99.90
8928;DHT22;4499;48.304;11.902;2022-12-05T06:50:09;1.60;99.90
8928;DHT22;4499;48.304;11.902;2022-12-05T06:52:37;1.50;99.90
8928;DHT22;4499;48.304;11.902;2022-12-05T06:55:06;1.60;99.90
8928;DHT22;4499;48.304;11.902;2022-12-05T06:57:35;1.60;99.90
8928;DHT22;4499;48.304;11.902;2022-12-05T07:00:04;1.60;99.90
8928;DHT22;4499;48.304;11.902;2022-12-05T07:02:52;1.60;99.90
8928;DHT22;4499;48.304;11.902;2022-12-05T07:05:20;1.60;99.90
8928;DHT22;4499;48.304;11.902;2022-12-05T07:07:49;1.60;99.90
8928;DHT22;4499;48.304;11.902;2022-12-05T07:10:17;1.70;99.90
8928;DHT22;4499;48.304;11.902;2022-12-05T07:12:47;1.60;99.90
8928;DHT22;4499;48.304;11.902;2022-12-05T07:15:15;1.60;99.90
8928;DHT22;4499;48.304;11.902;2022-12-05T07:17:43;1.60;99.90
8928;DHT22;4499;48.304;11.902;2022-12-05T07:20:13;1.70;99.90
8928;DHT22;4499;48.304;11.902;2022-12-05T07:22:43;1.70;99.90
8928;DHT22;4499;48.304;11.902;2022-12-05T07:25:11;1.70;99.90
8928;DHT22;4499;48.304;11.902;2022-12-05T07:27:39;1.70;99.90
8928;DHT22;4499;48.304;11.902;2022-12-05T07:30:08;1.80;99.90
8928;DHT22;4499;48.304;11.902;2022-12-05T07:32:36;1.80;99.90
8928;DHT22;4499;48.304;11.902;2022-12-05T07:35:05;1.70;99.90
8928;DHT22;4499;48.304;11.902;2022-12-05T07:37:35;1.80;99.90
8928;DHT22;4499;48.304;11.902;2022-12-05T07:40:04;1.80;99.90
8928;DHT22;4499;48.304;11.902;2022-12-05T07:42:32;1.80;99.90
8928;DHT22;4499;48.304;11.902;2022-12-05T07:45:04;1.90;99.90
8928;DHT22;4499;48.304;11.902;2022-12-05T07:47:32;1.80;99.90
8928;DHT22;4499;48.304;11.902;2022-12-05T07:50:00;1.90;99.90
8928;DHT22;4499;48.304;11.902;2022-12-05T07:52:28;1.90;99.90
8928;DHT22;4499;48.304;11.902;2022-12-05T07:55:00;1.90;99.90
8928;DHT22;4499;48.304;11.902;2022-12-05T07:57:29;1.90;99.90
8928;DHT22;4499;48.304;11.902;2022-12-05T07:59:57;2.00;99.90
8928;DHT22;4499;48.304;11.902;2022-12-05T08:02:26;2.00;99.90
8928;DHT22;4499;48.304;11.902;2022-12-05T08:04:54;2.00;99.90
8928;DHT22;4499;48.304;11.902;2022-12-05T08:07:22;2.00;99.90
8928;DHT22;4499;48.304;11.902;2022-12-05T08:09:50;2.00;99.90
8928;DHT22;4499;48.304;11.902;2022-12-05T08:12:19;2.10;99.90
8928;DHT22;4499;48.304;11.902;2022-12-05T08:14:47;2.10;99.90
8928;DHT22;4499;48.304;11.902;2022-12-05T08:17:15;2.10;99.90
8928;DHT22;4499;48.304;11.902;2022-12-05T08:19:44;2.20;99.90
8928;DHT22;4499;48.304;11.902;2022-12-05T08:22:12;2.20;99.90
8928;DHT22;4499;48.304;11.902;2022-12-05T08:24:41;2.10;99.90
8928;DHT22;4499;48.304;11.902;2022-12-05T08:27:10;2.20;99.90
8928;DHT22;4499;48.304;11.902;2022-12-05T08:29:39;2.20;99.90
8928;DHT22;4499;48.304;11.902;2022-12-05T08:32:07;2.30;99.90
8928;DHT22;4499;48.304;11.902;2022-12-05T08:34:40;2.30;99.90
8928;DHT22;4499;48.304;11.902;2022-12-05T08:37:08;2.30;99.90
8928;DHT22;4499;48.304;11.902;2022-12-05T08:39:36;2.40;99.90
8928;DHT22;4499;48.304;11.902;2022-12-05T08:42:05;5.30;99.90
8928;DHT22;4499;48.304;11.902;2022-12-05T08:44:33;4.30;99.90
8928;DHT22;4499;48.304;11.902;2022-12-05T08:47:04;3.80;99.90
8928;DHT22;4499;48.304;11.902;2022-12-05T08:49:32;3.30;99.90
8928;DHT22;4499;48.304;11.902;2022-12-05T08:52:00;3.30;99.90
8928;DHT22;4499;48.304;11.902;2022-12-05T08:54:28;3.20;99.90
8928;DHT22;4499;48.304;11.902;2022-12-05T08:57:21;3.10;99.90
8928;DHT22;4499;48.304;11.902;2022-12-05T08:59:56;2.90;99.90
8928;DHT22;4499;48.304;11.902;2022-12-05T09:02:25;2.80;99.90
8928;DHT22;4499;48.304;11.902;2022-12-05T09:04:53;2.80;99.90
8928;DHT22;4499;48.304;11.902;2022-12-05T09:07:34;2.80;99.90
8928;DHT22;4499;48.304;11.902;2022-12-05T09:10:03;2.70;99.90
8928;DHT22;4499;48.304;11.902;2022-12-05T09:12:32;2.70;99.90
8928;DHT22;4499;48.304;11.902;2022-12-05T09:15:02;2.70;99.90
8928;DHT22;4499;48.304;11.902;2022-12-05T09:17:31;2.70;99.90
8928;DHT22;4499;48.304;11.902;2022-12-05T09:19:59;2.80;99.90
8928;DHT22;4499;48.304;11.902;2022-12-05T09:22:29;2.80;99.90
8928;DHT22;4499;48.304;11.902;2022-12-05T09:24:57;2.80;99.90
8928;DHT22;4499;48.304;11.902;2022-12-05T09:27:27;2.90;99.90
8928;DHT22;4499;48.304;11.902;2022-12-05T09:29:55;2.90;99.90
8928;DHT22;4499;48.304;11.902;2022-12-05T09:32:24;3.00;99.90
8928;DHT22;4499;48.304;11.902;2022-12-05T09:34:54;2.90;99.90
8928;DHT22;4499;48.304;11.902;2022-12-05T09:37:23;2.90;99.90
8928;DHT22;4499;48.304;11.902;2022-12-05T09:40:09;2.90;99.90
8928;DHT22;4499;48.304;11.902;2022-12-05T09:42:53;2.90;99.90
8928;DHT22;4499;48.304;11.902;2022-12-05T09:45:26;3.00;99.90
8928;DHT22;4499;48.304;11.902;2022-12-05T09:47:58;3.00;99.90
8928;DHT22;4499;48.304;11.902;2022-12-05T09:50:29;3.20;99.90
8928;DHT22;4499;48.304;11.902;2022-12-05T09:53:05;3.10;99.90
8928;DHT22;4499;48.304;11.902;2022-12-05T09:55:44;3.20;99.90
8928;DHT22;4499;48.304;11.902;2022-12-05T10:01:21;3.20;99.90
8928;DHT22;4499;48.304;11.902;2022-12-05T10:04:03;3.20;99.90
8928;DHT22;4499;48.304;11.902;2022-12-05T10:06:37;3.30;99.90
8928;DHT22;4499;48.304;11.902;2022-12-05T10:09:18;3.30;99.90
8928;DHT22;4499;48.304;11.902;2022-12-05T10:11:55;3.30;99.90
8928;DHT22;4499;48.304;11.902;2022-12-05T10:14:30;3.40;99.90
8928;DHT22;4499;48.304;11.902;2022-12-05T10:17:04;3.30;99.90
8928;DHT22;4499;48.304;11.902;2022-12-05T10:19:41;3.40;99.90
8928;DHT22;4499;48.304;11.902;2022-12-05T10:22:14;3.40;99.90
8928;DHT22;4499;48.304;11.902;2022-12-05T10:24:48;3.40;99.90
8928;DHT22;4499;48.304;11.902;2022-12-05T10:27:26;3.40;99.90
8928;DHT22;4499;48.304;11.902;2022-12-05T10:30:04;3.40;99.90
8928;DHT22;4499;48.304;11.902;2022-12-05T10:32:36;3.50;99.90
8928;DHT22;4499;48.304;11.902;2022-12-05T10:35:15;3.40;99.90
8928;DHT22;4499;48.304;11.902;2022-12-05T10:37:47;3.40;99.90
8928;DHT22;4499;48.304;11.902;2022-12-05T10:40:16;3.40;99.90
8928;DHT22;4499;48.304;11.902;2022-12-05T10:42:45;3.40;99.90
8928;DHT22;4499;48.304;11.902;2022-12-05T10:45:17;3.50;99.90
8928;DHT22;4499;48.304;11.902;2022-12-05T10:47:52;3.60;99.90
8928;DHT22;4499;48.304;11.902;2022-12-05T10:50:24;3.60;99.90
8928;DHT22;4499;48.304;11.902;2022-12-05T10:52:59;3.80;99.90
8928;DHT22;4499;48.304;11.902;2022-12-05T10:55:31;3.60;99.90
8928;DHT22;4499;48.304;11.902;2022-12-05T10:58:12;3.60;99.90
8928;DHT22;4499;48.304;11.902;2022-12-05T11:00:45;3.70;99.90
8928;DHT22;4499;48.304;11.902;2022-12-05T11:03:26;3.70;99.90
8928;DHT22;4499;48.304;11.902;2022-12-05T11:05:57;3.70;99.90
8928;DHT22;4499;48.304;11.902;2022-12-05T11:08:30;3.70;99.90
8928;DHT22;4499;48.304;11.902;2022-12-05T11:11:21;3.80;99.90
8928;DHT22;4499;48.304;11.902;2022-12-05T11:13:52;3.70;99.90
8928;DHT22;4499;48.304;11.902;2022-12-05T11:16:23;3.70;99.90
8928;DHT22;4499;48.304;11.902;2022-12-05T11:18:52;3.70;99.90
8928;DHT22;4499;48.304;11.902;2022-12-05T11:21:20;3.80;99.90
8928;DHT22;4499;48.304;11.902;2022-12-05T11:23:49;3.80;99.90
8928;DHT22;4499;48.304;11.902;2022-12-05T11:26:32;3.90;99.90
8928;DHT22;4499;48.304;11.902;2022-12-05T11:29:01;4.00;99.90
8928;DHT22;4499;48.304;11.902;2022-12-05T11:31:30;4.00;99.90
8928;DHT22;4499;48.304;11.902;2022-12-05T11:34:14;4.00;99.90
8928;DHT22;4499;48.304;11.902;2022-12-05T11:36:47;4.00;99.90
8928;DHT22;4499;48.304;11.902;2022-12-05T11:39:21;4.00;99.90
8928;DHT22;4499;48.304;11.902;2022-12-05T11:48:01;4.10;99.90
8928;DHT22;4499;48.304;11.902;2022-12-05T11:50:45;4.10;99.90
8928;DHT22;4499;48.304;11.902;2022-12-05T11:53:38;4.20;99.90
8928;DHT22;4499;48.304;11.902;2022-12-05T11:56:17;4.20;99.90
8928;DHT22;4499;48.304;11.902;2022-12-05T11:59:02;4.10;99.90
8928;DHT22;4499;48.304;11.902;2022-12-05T12:01:47;4.20;99.90
8928;DHT22;4499;48.304;11.902;2022-12-05T12:07:24;4.20;99.90
8928;DHT22;4499;48.304;11.902;2022-12-05T12:10:07;4.10;99.90
8928;DHT22;4499;48.304;11.902;2022-12-05T12:12:47;4.20;99.90
8928;DHT22;4499;48.304;11.902;2022-12-05T12:15:37;4.10;99.90
8928;DHT22;4499;48.304;11.902;2022-12-05T12:18:24;4.50;99.90
8928;DHT22;4499;48.304;11.902;2022-12-05T12:21:06;4.40;99.90
8928;DHT22;4499;48.304;11.902;2022-12-05T12:23:51;4.40;99.90
8928;DHT22;4499;48.304;11.902;2022-12-05T12:26:28;4.20;99.90
8928;DHT22;4499;48.304;11.902;2022-12-05T12:29:07;4.30;99.90
8928;DHT22;4499;48.304;11.902;2022-12-05T12:31:53;4.20;99.90
8928;DHT22;4499;48.304;11.902;2022-12-05T12:34:40;4.20;99.90
8928;DHT22;4499;48.304;11.902;2022-12-05T12:37:18;4.20;99.90
8928;DHT22;4499;48.304;11.902;2022-12-05T12:39:58;4.20;99.90
8928;DHT22;4499;48.304;11.902;2022-12-05T12:42:34;4.20;99.90
8928;DHT22;4499;48.304;11.902;2022-12-05T12:45:30;4.20;99.90
8928;DHT22;4499;48.304;11.902;2022-12-05T12:48:14;4.20;99.90
8928;DHT22;4499;48.304;11.902;2022-12-05T12:50:44;4.20;99.90
8928;DHT22;4499;48.304;11.902;2022-12-05T12:53:55;4.20;99.90
8928;DHT22;4499;48.304;11.902;2022-12-05T12:56:32;4.30;99.90
8928;DHT22;4499;48.304;11.902;2022-12-05T12:59:21;4.30;99.90
8928;DHT22;4499;48.304;11.902;2022-12-05T13:01:57;4.30;99.90
8928;DHT22;4499;48.304;11.902;2022-12-05T13:04:33;4.30;99.90
8928;DHT22;4499;48.304;11.902;2022-12-05T13:07:10;4.40;99.90
8928;DHT22;4499;48.304;11.902;2022-12-05T13:09:44;4.40;99.90
8928;DHT22;4499;48.304;11.902;2022-12-05T13:12:21;4.40;99.90
8928;DHT22;4499;48.304;11.902;2022-12-05T13:14:54;4.50;99.90
8928;DHT22;4499;48.304;11.902;2022-12-05T13:17:29;4.50;99.90
8928;DHT22;4499;48.304;11.902;2022-12-05T13:19:59;4.50;99.90
8928;DHT22;4499;48.304;11.902;2022-12-05T13:22:28;4.40;99.90
8928;DHT22;4499;48.304;11.902;2022-12-05T13:24:56;4.40;99.90
8928;DHT22;4499;48.304;11.902;2022-12-05T13:27:27;4.50;99.90
8928;DHT22;4499;48.304;11.902;2022-12-05T13:29:58;4.40;99.90
8928;DHT22;4499;48.304;11.902;2022-12-05T13:32:31;4.40;99.90
8928;DHT22;4499;48.304;11.902;2022-12-05T13:35:02;4.40;99.90
8928;DHT22;4499;48.304;11.902;2022-12-05T13:37:36;4.40;99.90
8928;DHT22;4499;48.304;11.902;2022-12-05T13:40:33;4.30;99.90
8928;DHT22;4499;48.304;11.902;2022-12-05T13:43:23;4.30;99.90
8928;DHT22;4499;48.304;11.902;2022-12-05T13:46:01;4.30;99.90
8928;DHT22;4499;48.304;11.902;2022-12-05T13:48:34;4.30;99.90
8928;DHT22;4499;48.304;11.902;2022-12-05T13:51:05;4.30;99.90
8928;DHT22;4499;48.304;11.902;2022-12-05T13:53:37;4.30;99.90
8928;DHT22;4499;48.304;11.902;2022-12-05T13:56:24;4.30;99.90
8928;DHT22;4499;48.304;11.902;2022-12-05T13:58:53;4.20;99.90
8928;DHT22;4499;48.304;11.902;2022-12-05T14:01:43;4.20;99.90
8928;DHT22;4499;48.304;11.902;2022-12-05T14:04:47;4.20;99.90
8928;DHT22;4499;48.304;11.902;2022-12-05T14:07:37;4.20;99.90
8928;DHT22;4499;48.304;11.902;2022-12-05T14:10:08;4.20;99.90
8928;DHT22;4499;48.304;11.902;2022-12-05T14:12:48;4.10;99.90
8928;DHT22;4499;48.304;11.902;2022-12-05T14:15:33;4.10;99.90
8928;DHT22;4499;48.304;11.902;2022-12-05T14:18:07;4.10;99.90
8928;DHT22;4499;48.304;11.902;2022-12-05T14:20:53;4.10;99.90
8928;DHT22;4499;48.304;11.902;2022-12-05T14:23:47;4.10;99.90
8928;DHT22;4499;48.304;11.902;2022-12-05T14:26:32;4.10;99.90
8928;DHT22;4499;48.304;11.902;2022-12-05T14:29:13;4.10;99.90
8928;DHT22;4499;48.304;11.902;2022-12-05T14:31:57;4.10;99.90
8928;DHT22;4499;48.304;11.902;2022-12-05T14:34:32;4.10;99.90
8928;DHT22;4499;48.304;11.902;2022-12-05T14:37:05;4.10;99.90
8928;DHT22;4499;48.304;11.902;2022-12-05T14:39:37;4.10;99.90
8928;DHT22;4499;48.304;11.902;2022-12-05T14:42:20;4.10;99.90
8928;DHT22;4499;48.304;11.902;2022-12-05T14:44:52;4.00;99.90
8928;DHT22;4499;48.304;11.902;2022-12-05T14:47:24;4.10;99.90
8928;DHT22;4499;48.304;11.902;2022-12-05T14:49:57;4.10;99.90
8928;DHT22;4499;48.304;11.902;2022-12-05T14:52:30;4.10;99.90
8928;DHT22;4499;48.304;11.902;2022-12-05T14:55:09;4.00;99.90
8928;DHT22;4499;48.304;11.902;2022-12-05T14:57:44;4.00;99.90
8928;DHT22;4499;48.304;11.902;2022-12-05T15:00:18;4.00;99.90
8928;DHT22;4499;48.304;11.902;2022-12-05T15:02:50;4.00;99.90
8928;DHT22;4499;48.304;11.902;2022-12-05T15:05:24;4.00;99.90
8928;DHT22;4499;48.304;11.902;2022-12-05T15:07:56;4.00;99.90
8928;DHT22;4499;48.304;11.902;2022-12-05T15:10:28;4.00;99.90
8928;DHT22;4499;48.304;11.902;2022-12-05T15:12:57;4.00;99.90
8928;DHT22;4499;48.304;11.902;2022-12-05T15:15:34;4.00;99.90
8928;DHT22;4499;48.304;11.902;2022-12-05T15:18:11;3.90;99.90
8928;DHT22;4499;48.304;11.902;2022-12-05T15:20:44;3.90;99.90
8928;DHT22;4499;48.304;11.902;2022-12-05T15:23:38;3.90;99.90
8928;DHT22;4499;48.304;11.902;2022-12-05T15:26:16;3.90;99.90
8928;DHT22;4499;48.304;11.902;2022-12-05T15:29:08;3.80;99.90
8928;DHT22;4499;48.304;11.902;2022-12-05T15:31:42;3.80;99.90
8928;DHT22;4499;48.304;11.902;2022-12-05T15:34:14;3.70;99.90
8928;DHT22;4499;48.304;11.902;2022-12-05T15:36:48;3.70;99.90
8928;DHT22;4499;48.304;11.902;2022-12-05T15:39:21;3.70;99.90
8928;DHT22;4499;48.304;11.902;2022-12-05T15:41:51;3.70;99.90
8928;DHT22;4499;48.304;11.902;2022-12-05T15:44:20;3.70;99.90
8928;DHT22;4499;48.304;11.902;2022-12-05T15:46:58;3.70;99.90
8928;DHT22;4499;48.304;11.902;2022-12-05T15:49:27;3.60;99.90
8928;DHT22;4499;48.304;11.902;2022-12-05T15:51:57;3.70;99.90
8928;DHT22;4499;48.304;11.902;2022-12-05T15:54:32;3.70;99.90
8928;DHT22;4499;48.304;11.902;2022-12-05T15:57:05;3.60;99.90
8928;DHT22;4499;48.304;11.902;2022-12-05T15:59:39;3.60;99.90
8928;DHT22;4499;48.304;11.902;2022-12-05T16:02:13;3.50;99.90
8928;DHT22;4499;48.304;11.902;2022-12-05T16:04:46;3.50;99.90
8928;DHT22;4499;48.304;11.902;2022-12-05T16:07:16;3.50;99.90
8928;DHT22;4499;48.304;11.902;2022-12-05T16:09:48;3.40;99.90
8928;DHT22;4499;48.304;11.902;2022-12-05T16:12:26;3.40;99.90
8928;DHT22;4499;48.304;11.902;2022-12-05T16:15:02;3.40;99.90
8928;DHT22;4499;48.304;11.902;2022-12-05T16:17:40;3.40;99.90
8928;DHT22;4499;48.304;11.902;2022-12-05T16:20:23;3.40;99.90
8928;DHT22;4499;48.304;11.902;2022-12-05T16:22:53;3.40;99.90
8928;DHT22;4499;48.304;11.902;2022-12-05T16:25:25;3.40;99.90
8928;DHT22;4499;48.304;11.902;2022-12-05T16:27:58;3.40;99.90
8928;DHT22;4499;48.304;11.902;2022-12-05T16:30:27;3.40;99.90
8928;DHT22;4499;48.304;11.902;2022-12-05T16:33:03;3.40;99.90
8928;DHT22;4499;48.304;11.902;2022-12-05T16:35:35;3.40;99.90
8928;DHT22;4499;48.304;11.902;2022-12-05T16:38:08;3.40;99.90
8928;DHT22;4499;48.304;11.902;2022-12-05T16:40:38;3.30;99.90
8928;DHT22;4499;48.304;11.902;2022-12-05T16:43:17;3.40;99.90
8928;DHT22;4499;48.304;11.902;2022-12-05T16:45:46;3.30;99.90
8928;DHT22;4499;48.304;11.902;2022-12-05T16:48:18;3.40;99.90
8928;DHT22;4499;48.304;11.902;2022-12-05T16:50:49;3.30;99.90
8928;DHT22;4499;48.304;11.902;2022-12-05T16:53:27;3.30;99.90
8928;DHT22;4499;48.304;11.902;2022-12-05T16:55:58;3.30;99.90
8928;DHT22;4499;48.304;11.902;2022-12-05T16:58:30;3.30;99.90